sensor_id;sensor_type;location;lat;lon;timestamp;pressure;altitude;pressure_sealevel;temperature;humidity
10606;BME280;5350;42.698;23.148;2024-03-17T00:01:00;93876.97;;;5.79;100.00
10606;BME280;5350;42.698;23.148;2024-03-17T00:03:26;93880.91;;;5.81;100.00
10606;BME280;5350;42.698;23.148;2024-03-17T00:05:56;93881.94;;;5.80;100.00
10606;BME280;5350;42.698;23.148;2024-03-17T00:08:22;93879.84;;;5.77;100.00
10606;BME280;5350;42.698;23.148;2024-03-17T00:10:50;93879.31;;;5.80;100.00
10606;BME280;5350;42.698;23.148;2024-03-17T00:13:16;93879.00;;;5.66;100.00
10606;BME280;5350;42.698;23.148;2024-03-17T00:15:43;93881.72;;;5.45;100.00
10606;BME280;5350;42.698;23.148;2024-03-17T00:18:09;93872.72;;;5.62;100.00
10606;BME280;5350;42.698;23.148;2024-03-17T00:20:36;93876.34;;;5.61;100.00
10606;BME280;5350;42.698;23.148;2024-03-17T00:23:05;93881.03;;;5.59;100.00
10606;BME280;5350;42.698;23.148;2024-03-17T00:25:34;93873.25;;;5.64;100.00
10606;BME280;5350;42.698;23.148;2024-03-17T00:28:00;93877.09;;;5.57;100.00
10606;BME280;5350;42.698;23.148;2024-03-17T00:30:26;93877.13;;;5.62;100.00
10606;BME280;5350;42.698;23.148;2024-03-17T00:32:52;93870.78;;;5.48;100.00
10606;BME280;5350;42.698;23.148;2024-03-17T00:35:19;93857.16;;;5.41;100.00
10606;BME280;5350;42.698;23.148;2024-03-17T00:37:46;93874.22;;;5.53;100.00
10606;BME280;5350;42.698;23.148;2024-03-17T00:40:14;93872.66;;;5.52;100.00
10606;BME280;5350;42.698;23.148;2024-03-17T00:42:40;93847.47;;;5.36;100.00
10606;BME280;5350;42.698;23.148;2024-03-17T00:45:07;93877.28;;;5.45;100.00
10606;BME280;5350;42.698;23.148;2024-03-17T00:47:35;93855.78;;;5.28;100.00
10606;BME280;5350;42.698;23.148;2024-03-17T00:50:02;93855.56;;;5.03;100.00
10606;BME280;5350;42.698;23.148;2024-03-17T00:52:28;93879.84;;;5.35;100.00
10606;BME280;5350;42.698;23.148;2024-03-17T00:54:55;93881.91;;;5.33;100.00
10606;BME280;5350;42.698;23.148;2024-03-17T00:57:22;93880.09;;;5.34;100.00
10606;BME280;5350;42.698;23.148;2024-03-17T00:59:49;93878.56;;;5.38;100.00
10606;BME280;5350;42.698;23.148;2024-03-17T01:02:17;93878.03;;;5.41;100.00
10606;BME280;5350;42.698;23.148;2024-03-17T01:04:44;93875.34;;;5.31;100.00
10606;BME280;5350;42.698;23.148;2024-03-17T01:07:11;93879.78;;;5.30;100.00
10606;BME280;5350;42.698;23.148;2024-03-17T01:09:37;93883.47;;;5.34;100.00
10606;BME280;5350;42.698;23.148;2024-03-17T01:12:04;93875.09;;;5.27;100.00
10606;BME280;5350;42.698;23.148;2024-03-17T01:14:32;93883.44;;;5.29;100.00
10606;BME280;5350;42.698;23.148;2024-03-17T01:17:00;93878.16;;;5.24;100.00
10606;BME280;5350;42.698;23.148;2024-03-17T01:19:26;93885.44;;;5.17;100.00
10606;BME280;5350;42.698;23.148;2024-03-17T01:21:52;93888.28;;;5.16;100.00
10606;BME280;5350;42.698;23.148;2024-03-17T01:24:18;93896.34;;;5.14;100.00
10606;BME280;5350;42.698;23.148;2024-03-17T01:26:45;93890.66;;;5.17;100.00
10606;BME280;5350;42.698;23.148;2024-03-17T01:29:11;93886.72;;;5.15;100.00
10606;BME280;5350;42.698;23.148;2024-03-17T01:31:40;93875.63;;;4.98;100.00
10606;BME280;5350;42.698;23.148;2024-03-17T01:34:05;93879.59;;;5.05;100.00
10606;BME280;5350;42.698;23.148;2024-03-17T01:36:37;93882.25;;;5.10;100.00
10606;BME280;5350;42.698;23.148;2024-03-17T01:39:03;93878.09;;;5.14;100.00
10606;BME280;5350;42.698;23.148;2024-03-17T01:41:31;93873.34;;;5.06;100.00
10606;BME280;5350;42.698;23.148;2024-03-17T01:43:57;93875.97;;;5.11;100.00
10606;BME280;5350;42.698;23.148;2024-03-17T01:46:24;93877.78;;;5.06;100.00
10606;BME280;5350;42.698;23.148;2024-03-17T01:48:51;93882.31;;;4.88;100.00
10606;BME280;5350;42.698;23.148;2024-03-17T01:51:19;93876.34;;;4.93;100.00
10606;BME280;5350;42.698;23.148;2024-03-17T01:53:46;93875.34;;;4.94;100.00
10606;BME280;5350;42.698;23.148;2024-03-17T01:56:12;93876.63;;;4.92;100.00
10606;BME280;5350;42.698;23.148;2024-03-17T01:58:42;93879.97;;;4.87;100.00
10606;BME280;5350;42.698;23.148;2024-03-17T02:01:09;93873.75;;;4.93;100.00
10606;BME280;5350;42.698;23.148;2024-03-17T02:03:36;93870.69;;;5.01;100.00
10606;BME280;5350;42.698;23.148;2024-03-17T02:06:03;93878.28;;;5.03;100.00
10606;BME280;5350;42.698;23.148;2024-03-17T02:08:46;93871.75;;;5.00;100.00
10606;BME280;5350;42.698;23.148;2024-03-17T02:11:24;93870.69;;;5.01;100.00
10606;BME280;5350;42.698;23.148;2024-03-17T02:13:51;93877.50;;;5.02;100.00
10606;BME280;5350;42.698;23.148;2024-03-17T02:16:17;93874.03;;;4.97;100.00
10606;BME280;5350;42.698;23.148;2024-03-17T02:18:45;93872.22;;;4.97;100.00
10606;BME280;5350;42.698;23.148;2024-03-17T02:21:13;93856.25;;;4.88;100.00
10606;BME280;5350;42.698;23.148;2024-03-17T02:23:41;93873.84;;;5.03;100.00
10606;BME280;5350;42.698;23.148;2024-03-17T02:26:07;93867.00;;;4.97;100.00
10606;BME280;5350;42.698;23.148;2024-03-17T02:28:40;93868.06;;;4.96;100.00
10606;BME280;5350;42.698;23.148;2024-03-17T02:31:08;93867.75;;;4.93;100.00
10606;BME280;5350;42.698;23.148;2024-03-17T02:33:35;93871.75;;;5.00;100.00
10606;BME280;5350;42.698;23.148;2024-03-17T02:36:01;93867.50;;;4.94;100.00
10606;BME280;5350;42.698;23.148;2024-03-17T02:38:29;93864.91;;;4.94;100.00
10606;BME280;5350;42.698;23.148;2024-03-17T02:41:15;93866.47;;;4.95;100.00
10606;BME280;5350;42.698;23.148;2024-03-17T02:43:41;93865.59;;;4.84;100.00
10606;BME280;5350;42.698;23.148;2024-03-17T02:46:10;93860.84;;;4.76;100.00
10606;BME280;5350;42.698;23.148;2024-03-17T02:48:38;93864.53;;;4.80;100.00
10606;BME280;5350;42.698;23.148;2024-03-17T02:51:10;93863.31;;;4.88;100.00
10606;BME280;5350;42.698;23.148;2024-03-17T02:53:37;93865.31;;;4.81;100.00
10606;BME280;5350;42.698;23.148;2024-03-17T02:56:04;93873.75;;;4.93;100.00
10606;BME280;5350;42.698;23.148;2024-03-17T02:58:33;93864.91;;;4.94;100.00
10606;BME280;5350;42.698;23.148;2024-03-17T03:01:00;93866.72;;;4.94;100.00
10606;BME280;5350;42.698;23.148;2024-03-17T03:03:27;93869.06;;;4.90;100.00
10606;BME280;5350;42.698;23.148;2024-03-17T03:05:53;93867.75;;;4.93;100.00
10606;BME280;5350;42.698;23.148;2024-03-17T03:08:22;93865.91;;;4.88;100.00
10606;BME280;5350;42.698;23.148;2024-03-17T03:10:48;93860.97;;;4.92;100.00
10606;BME280;5350;42.698;23.148;2024-03-17T03:13:15;93866.44;;;4.90;100.00
10606;BME280;5350;42.698;23.148;2024-03-17T03:15:44;93863.50;;;4.81;100.00
10606;BME280;5350;42.698;23.148;2024-03-17T03:18:13;93853.22;;;4.70;100.00
10606;BME280;5350;42.698;23.148;2024-03-17T03:20:39;93856.88;;;4.69;100.00
10606;BME280;5350;42.698;23.148;2024-03-17T03:23:06;93860.03;;;4.76;100.00
10606;BME280;5350;42.698;23.148;2024-03-17T03:25:33;93857.97;;;4.78;100.00
10606;BME280;5350;42.698;23.148;2024-03-17T03:28:00;93850.56;;;4.65;100.00
10606;BME280;5350;42.698;23.148;2024-03-17T03:30:27;93851.00;;;4.57;100.00
10606;BME280;5350;42.698;23.148;2024-03-17T03:32:55;93861.28;;;4.68;100.00
10606;BME280;5350;42.698;23.148;2024-03-17T03:35:22;93859.03;;;4.77;100.00
10606;BME280;5350;42.698;23.148;2024-03-17T03:37:49;93855.13;;;4.79;100.00
10606;BME280;5350;42.698;23.148;2024-03-17T03:40:17;93861.09;;;4.75;100.00
10606;BME280;5350;42.698;23.148;2024-03-17T03:42:43;93861.34;;;4.73;100.00
10606;BME280;5350;42.698;23.148;2024-03-17T03:45:10;93868.69;;;4.55;100.00
10606;BME280;5350;42.698;23.148;2024-03-17T03:47:38;93875.19;;;4.52;100.00
10606;BME280;5350;42.698;23.148;2024-03-17T03:50:08;93867.69;;;4.56;100.00
10606;BME280;5350;42.698;23.148;2024-03-17T03:52:35;93868.16;;;4.53;100.00
10606;BME280;5350;42.698;23.148;2024-03-17T03:55:02;93873.16;;;4.33;100.00
10606;BME280;5350;42.698;23.148;2024-03-17T03:57:32;93870.72;;;4.48;100.00
10606;BME280;5350;42.698;23.148;2024-03-17T03:59:59;93874.44;;;4.57;100.00
10606;BME280;5350;42.698;23.148;2024-03-17T04:02:26;93880.31;;;4.69;100.00
10606;BME280;5350;42.698;23.148;2024-03-17T04:04:56;93876.13;;;4.68;100.00
10606;BME280;5350;42.698;23.148;2024-03-17T04:07:24;93881.69;;;4.76;100.00
10606;BME280;5350;42.698;23.148;2024-03-17T04:09:52;93889.06;;;4.84;100.00
10606;BME280;5350;42.698;23.148;2024-03-17T04:12:19;93885.16;;;4.87;100.00
10606;BME280;5350;42.698;23.148;2024-03-17T04:14:46;93884.09;;;4.83;100.00
10606;BME280;5350;42.698;23.148;2024-03-17T04:17:17;93889.31;;;4.83;100.00
10606;BME280;5350;42.698;23.148;2024-03-17T04:19:46;93896.41;;;4.93;100.00
10606;BME280;5350;42.698;23.148;2024-03-17T04:22:13;93908.22;;;5.00;100.00
10606;BME280;5350;42.698;23.148;2024-03-17T04:24:41;93904.00;;;4.94;100.00
10606;BME280;5350;42.698;23.148;2024-03-17T04:27:08;93900.34;;;4.95;100.00
10606;BME280;5350;42.698;23.148;2024-03-17T04:29:34;93904.78;;;4.95;100.00
10606;BME280;5350;42.698;23.148;2024-03-17T04:32:01;93907.63;;;4.93;100.00
10606;BME280;5350;42.698;23.148;2024-03-17T04:34:30;93902.06;;;4.79;100.00
10606;BME280;5350;42.698;23.148;2024-03-17T04:36:56;93910.63;;;4.80;100.00
10606;BME280;5350;42.698;23.148;2024-03-17T04:39:23;93912.50;;;4.84;100.00
10606;BME280;5350;42.698;23.148;2024-03-17T04:41:52;93911.78;;;4.89;100.00
10606;BME280;5350;42.698;23.148;2024-03-17T04:44:18;93915.75;;;4.97;100.00
10606;BME280;5350;42.698;23.148;2024-03-17T04:46:45;93921.28;;;5.00;100.00
10606;BME280;5350;42.698;23.148;2024-03-17T04:49:12;93920.66;;;4.93;100.00
10606;BME280;5350;42.698;23.148;2024-03-17T04:51:38;93926.41;;;4.90;100.00
10606;BME280;5350;42.698;23.148;2024-03-17T04:54:05;93923.25;;;4.88;100.00
10606;BME280;5350;42.698;23.148;2024-03-17T04:56:32;93936.06;;;4.95;100.00
10606;BME280;5350;42.698;23.148;2024-03-17T04:59:00;93936.38;;;4.98;100.00
10606;BME280;5350;42.698;23.148;2024-03-17T05:01:27;93936.22;;;5.10;100.00
10606;BME280;5350;42.698;23.148;2024-03-17T05:03:56;93943.91;;;5.26;100.00
10606;BME280;5350;42.698;23.148;2024-03-17T05:06:23;93946.19;;;5.18;100.00
10606;BME280;5350;42.698;23.148;2024-03-17T05:08:49;93949.59;;;5.18;100.00
10606;BME280;5350;42.698;23.148;2024-03-17T05:11:16;93952.25;;;5.23;100.00
10606;BME280;5350;42.698;23.148;2024-03-17T05:13:43;93949.09;;;5.21;100.00
10606;BME280;5350;42.698;23.148;2024-03-17T05:16:11;93958.03;;;5.30;100.00
10606;BME280;5350;42.698;23.148;2024-03-17T05:18:38;93959.88;;;5.30;100.00
10606;BME280;5350;42.698;23.148;2024-03-17T05:21:06;93952.34;;;5.33;100.00
10606;BME280;5350;42.698;23.148;2024-03-17T05:23:34;93953.22;;;5.49;100.00
10606;BME280;5350;42.698;23.148;2024-03-17T05:26:01;93960.31;;;5.53;100.00
10606;BME280;5350;42.698;23.148;2024-03-17T05:28:30;93959.81;;;5.56;100.00
10606;BME280;5350;42.698;23.148;2024-03-17T05:30:56;93960.38;;;5.58;100.00
10606;BME280;5350;42.698;23.148;2024-03-17T05:33:26;93963.53;;;5.65;100.00
10606;BME280;5350;42.698;23.148;2024-03-17T05:35:54;93961.78;;;5.76;100.00
10606;BME280;5350;42.698;23.148;2024-03-17T05:38:21;93963.94;;;5.84;100.00
10606;BME280;5350;42.698;23.148;2024-03-17T05:40:55;93959.03;;;5.93;100.00
10606;BME280;5350;42.698;23.148;2024-03-17T05:43:22;93959.66;;;6.05;100.00
10606;BME280;5350;42.698;23.148;2024-03-17T05:45:49;93962.81;;;6.12;100.00
10606;BME280;5350;42.698;23.148;2024-03-17T05:48:16;93961.31;;;6.26;100.00
10606;BME280;5350;42.698;23.148;2024-03-17T05:50:44;93964.25;;;6.34;100.00
10606;BME280;5350;42.698;23.148;2024-03-17T05:53:11;93959.09;;;6.44;100.00
10606;BME280;5350;42.698;23.148;2024-03-17T05:55:38;93954.13;;;6.48;100.00
10606;BME280;5350;42.698;23.148;2024-03-17T05:58:06;93955.75;;;6.59;100.00
10606;BME280;5350;42.698;23.148;2024-03-17T06:00:34;93967.56;;;6.77;100.00
10606;BME280;5350;42.698;23.148;2024-03-17T06:03:01;93967.34;;;6.88;100.00
10606;BME280;5350;42.698;23.148;2024-03-17T06:05:31;93974.16;;;6.99;100.00
10606;BME280;5350;42.698;23.148;2024-03-17T06:07:59;93970.00;;;7.08;100.00
10606;BME280;5350;42.698;23.148;2024-03-17T06:10:27;93969.75;;;7.20;100.00
10606;BME280;5350;42.698;23.148;2024-03-17T06:12:54;93977.66;;;7.30;100.00
10606;BME280;5350;42.698;23.148;2024-03-17T06:15:21;93974.75;;;7.37;100.00
10606;BME280;5350;42.698;23.148;2024-03-17T06:17:49;93976.31;;;7.43;100.00
10606;BME280;5350;42.698;23.148;2024-03-17T06:20:17;93977.13;;;7.53;100.00
10606;BME280;5350;42.698;23.148;2024-03-17T06:22:43;93971.63;;;7.60;100.00
10606;BME280;5350;42.698;23.148;2024-03-17T06:25:12;93984.72;;;7.65;100.00
10606;BME280;5350;42.698;23.148;2024-03-17T06:27:39;93988.66;;;7.77;100.00
10606;BME280;5350;42.698;23.148;2024-03-17T06:30:07;93987.84;;;7.87;100.00
10606;BME280;5350;42.698;23.148;2024-03-17T06:32:39;93992.56;;;7.95;100.00
10606;BME280;5350;42.698;23.148;2024-03-17T06:35:06;93993.63;;;8.09;100.00
10606;BME280;5350;42.698;23.148;2024-03-17T06:37:33;93999.38;;;8.21;100.00
10606;BME280;5350;42.698;23.148;2024-03-17T06:40:00;93951.69;;;8.04;100.00
10606;BME280;5350;42.698;23.148;2024-03-17T06:42:28;93994.63;;;8.43;100.00
10606;BME280;5350;42.698;23.148;2024-03-17T06:44:54;93997.19;;;8.53;100.00
10606;BME280;5350;42.698;23.148;2024-03-17T06:47:21;93993.78;;;8.63;100.00
10606;BME280;5350;42.698;23.148;2024-03-17T06:49:48;93991.38;;;8.76;100.00
10606;BME280;5350;42.698;23.148;2024-03-17T06:52:14;93991.81;;;8.94;100.00
10606;BME280;5350;42.698;23.148;2024-03-17T06:54:41;93996.25;;;9.03;100.00
10606;BME280;5350;42.698;23.148;2024-03-17T06:57:08;94001.69;;;9.12;100.00
10606;BME280;5350;42.698;23.148;2024-03-17T06:59:36;94002.75;;;9.11;100.00
10606;BME280;5350;42.698;23.148;2024-03-17T07:02:04;93996.44;;;9.17;100.00
10606;BME280;5350;42.698;23.148;2024-03-17T07:04:31;94013.72;;;9.28;100.00
10606;BME280;5350;42.698;23.148;2024-03-17T07:06:58;94011.84;;;9.28;100.00
10606;BME280;5350;42.698;23.148;2024-03-17T07:09:24;94011.09;;;9.28;100.00
10606;BME280;5350;42.698;23.148;2024-03-17T07:11:51;94008.91;;;9.40;100.00
10606;BME280;5350;42.698;23.148;2024-03-17T07:14:18;94016.19;;;9.53;100.00
10606;BME280;5350;42.698;23.148;2024-03-17T07:16:46;94015.31;;;9.68;100.00
10606;BME280;5350;42.698;23.148;2024-03-17T07:19:13;94013.84;;;9.85;100.00
10606;BME280;5350;42.698;23.148;2024-03-17T07:21:40;94016.88;;;10.02;100.00
10606;BME280;5350;42.698;23.148;2024-03-17T07:24:06;94017.88;;;10.11;100.00
10606;BME280;5350;42.698;23.148;2024-03-17T07:26:33;94021.44;;;10.25;98.25
10606;BME280;5350;42.698;23.148;2024-03-17T07:29:00;94022.06;;;10.41;96.54
10606;BME280;5350;42.698;23.148;2024-03-17T07:31:26;94020.97;;;10.47;94.76
10606;BME280;5350;42.698;23.148;2024-03-17T07:33:54;94025.38;;;10.52;95.22
10606;BME280;5350;42.698;23.148;2024-03-17T07:36:21;94028.44;;;10.64;95.26
10606;BME280;5350;42.698;23.148;2024-03-17T07:38:48;94020.88;;;10.57;91.51
10606;BME280;5350;42.698;23.148;2024-03-17T07:41:16;94026.69;;;10.54;92.56
10606;BME280;5350;42.698;23.148;2024-03-17T07:43:42;94029.16;;;10.69;88.37
10606;BME280;5350;42.698;23.148;2024-03-17T07:46:11;94025.56;;;10.60;89.61
10606;BME280;5350;42.698;23.148;2024-03-17T07:48:38;94028.44;;;10.64;89.73
10606;BME280;5350;42.698;23.148;2024-03-17T07:51:08;94019.19;;;10.66;87.58
10606;BME280;5350;42.698;23.148;2024-03-17T07:53:36;94035.75;;;10.67;88.90
10606;BME280;5350;42.698;23.148;2024-03-17T07:56:04;94021.56;;;10.68;90.38
10606;BME280;5350;42.698;23.148;2024-03-17T07:58:33;94023.50;;;10.81;92.17
10606;BME280;5350;42.698;23.148;2024-03-17T08:01:00;94017.97;;;10.82;89.78
10606;BME280;5350;42.698;23.148;2024-03-17T08:03:27;94024.28;;;10.81;89.53
10606;BME280;5350;42.698;23.148;2024-03-17T08:05:54;94020.31;;;10.84;89.74
10606;BME280;5350;42.698;23.148;2024-03-17T08:08:22;94021.50;;;10.96;88.64
10606;BME280;5350;42.698;23.148;2024-03-17T08:10:49;94021.19;;;10.98;89.98
10606;BME280;5350;42.698;23.148;2024-03-17T08:13:16;94020.88;;;11.04;90.15
10606;BME280;5350;42.698;23.148;2024-03-17T08:15:43;94024.91;;;10.97;93.16
10606;BME280;5350;42.698;23.148;2024-03-17T08:18:10;94023.28;;;11.01;95.23
10606;BME280;5350;42.698;23.148;2024-03-17T08:20:37;94017.56;;;11.17;95.21
10606;BME280;5350;42.698;23.148;2024-03-17T08:23:04;94018.38;;;11.37;91.84
10606;BME280;5350;42.698;23.148;2024-03-17T08:25:33;94016.88;;;11.49;90.94
10606;BME280;5350;42.698;23.148;2024-03-17T08:28:00;94011.47;;;11.59;92.05
10606;BME280;5350;42.698;23.148;2024-03-17T08:30:27;94010.19;;;11.75;92.20
10606;BME280;5350;42.698;23.148;2024-03-17T08:32:54;94007.69;;;11.84;90.00
10606;BME280;5350;42.698;23.148;2024-03-17T08:35:20;94012.69;;;11.85;91.48
10606;BME280;5350;42.698;23.148;2024-03-17T08:37:47;94010.25;;;12.08;91.91
10606;BME280;5350;42.698;23.148;2024-03-17T08:40:14;94007.06;;;12.24;90.06
10606;BME280;5350;42.698;23.148;2024-03-17T08:42:42;94007.25;;;12.28;86.47
10606;BME280;5350;42.698;23.148;2024-03-17T08:45:10;94007.88;;;12.52;85.77
10606;BME280;5350;42.698;23.148;2024-03-17T08:47:37;94001.47;;;12.71;81.24
10606;BME280;5350;42.698;23.148;2024-03-17T08:50:05;94005.38;;;13.01;81.32
10606;BME280;5350;42.698;23.148;2024-03-17T08:52:33;94001.38;;;13.17;80.02
10606;BME280;5350;42.698;23.148;2024-03-17T08:55:00;93988.28;;;13.26;79.14
10606;BME280;5350;42.698;23.148;2024-03-17T08:57:29;94000.16;;;13.50;77.63
10606;BME280;5350;42.698;23.148;2024-03-17T08:59:57;94003.06;;;13.62;72.62
10606;BME280;5350;42.698;23.148;2024-03-17T09:02:23;93997.78;;;13.62;71.70
10606;BME280;5350;42.698;23.148;2024-03-17T09:04:50;94002.81;;;13.73;71.22
10606;BME280;5350;42.698;23.148;2024-03-17T09:07:17;93996.25;;;13.84;71.87
10606;BME280;5350;42.698;23.148;2024-03-17T09:09:46;93996.84;;;13.81;68.07
10606;BME280;5350;42.698;23.148;2024-03-17T09:12:13;93991.09;;;14.01;67.39
10606;BME280;5350;42.698;23.148;2024-03-17T09:14:39;93991.69;;;14.20;69.44
10606;BME280;5350;42.698;23.148;2024-03-17T09:17:08;93997.88;;;14.37;67.55
10606;BME280;5350;42.698;23.148;2024-03-17T09:19:35;94001.94;;;14.35;64.98
10606;BME280;5350;42.698;23.148;2024-03-17T09:22:01;93996.16;;;14.33;65.22
10606;BME280;5350;42.698;23.148;2024-03-17T09:24:29;93998.50;;;14.34;64.07
10606;BME280;5350;42.698;23.148;2024-03-17T09:26:56;93980.88;;;14.30;63.68
10606;BME280;5350;42.698;23.148;2024-03-17T09:29:23;93983.31;;;14.49;64.22
10606;BME280;5350;42.698;23.148;2024-03-17T09:31:50;93973.19;;;14.51;62.08
10606;BME280;5350;42.698;23.148;2024-03-17T09:34:18;93969.13;;;14.84;60.07
10606;BME280;5350;42.698;23.148;2024-03-17T09:36:45;93967.47;;;14.96;56.78
10606;BME280;5350;42.698;23.148;2024-03-17T09:39:11;93966.41;;;15.06;53.87
10606;BME280;5350;42.698;23.148;2024-03-17T09:41:40;93970.00;;;15.10;53.76
10606;BME280;5350;42.698;23.148;2024-03-17T09:44:11;93963.78;;;15.23;54.88
10606;BME280;5350;42.698;23.148;2024-03-17T09:46:39;93918.25;;;15.04;53.88
10606;BME280;5350;42.698;23.148;2024-03-17T09:49:09;93966.38;;;15.54;54.54
10606;BME280;5350;42.698;23.148;2024-03-17T09:51:42;93961.53;;;15.73;54.15
10606;BME280;5350;42.698;23.148;2024-03-17T09:54:17;93966.38;;;15.96;53.09
10606;BME280;5350;42.698;23.148;2024-03-17T09:56:44;93951.84;;;15.94;47.88
10606;BME280;5350;42.698;23.148;2024-03-17T09:59:11;93943.91;;;15.60;49.93
10606;BME280;5350;42.698;23.148;2024-03-17T10:01:37;93945.00;;;15.59;51.68
10606;BME280;5350;42.698;23.148;2024-03-17T10:04:04;93948.56;;;15.54;53.20
10606;BME280;5350;42.698;23.148;2024-03-17T10:06:31;93949.34;;;15.55;52.54
10606;BME280;5350;42.698;23.148;2024-03-17T10:09:00;93953.59;;;15.64;49.87
10606;BME280;5350;42.698;23.148;2024-03-17T10:11:33;93945.94;;;15.63;48.09
10606;BME280;5350;42.698;23.148;2024-03-17T10:14:01;93948.56;;;15.54;49.42
10606;BME280;5350;42.698;23.148;2024-03-17T10:16:29;93943.13;;;15.51;49.36
10606;BME280;5350;42.698;23.148;2024-03-17T10:19:06;93949.53;;;15.50;49.81
10606;BME280;5350;42.698;23.148;2024-03-17T10:21:35;93950.88;;;15.39;51.87
10606;BME280;5350;42.698;23.148;2024-03-17T10:24:08;93949.94;;;15.35;50.56
10606;BME280;5350;42.698;23.148;2024-03-17T10:26:37;93937.59;;;15.21;51.15
10606;BME280;5350;42.698;23.148;2024-03-17T10:29:05;93945.81;;;14.94;48.55
10606;BME280;5350;42.698;23.148;2024-03-17T10:31:31;93956.28;;;14.60;48.48
10606;BME280;5350;42.698;23.148;2024-03-17T10:34:01;93957.59;;;14.40;49.33
10606;BME280;5350;42.698;23.148;2024-03-17T10:36:28;93959.94;;;14.20;49.08
10606;BME280;5350;42.698;23.148;2024-03-17T10:38:55;93955.91;;;14.22;49.47
10606;BME280;5350;42.698;23.148;2024-03-17T10:41:25;93959.78;;;14.25;46.92
10606;BME280;5350;42.698;23.148;2024-03-17T10:43:53;93966.81;;;13.99;46.01
10606;BME280;5350;42.698;23.148;2024-03-17T10:46:23;93958.97;;;13.94;47.19
10606;BME280;5350;42.698;23.148;2024-03-17T10:48:53;93946.97;;;14.10;47.12
10606;BME280;5350;42.698;23.148;2024-03-17T10:51:20;93948.72;;;14.23;44.82
10606;BME280;5350;42.698;23.148;2024-03-17T10:53:47;93956.06;;;14.26;43.23
10606;BME280;5350;42.698;23.148;2024-03-17T10:56:16;93939.69;;;14.46;43.34
10606;BME280;5350;42.698;23.148;2024-03-17T10:58:48;93940.88;;;14.71;42.52
10606;BME280;5350;42.698;23.148;2024-03-17T11:01:22;93935.03;;;14.82;43.61
10606;BME280;5350;42.698;23.148;2024-03-17T11:03:50;93937.50;;;14.79;43.37
10606;BME280;5350;42.698;23.148;2024-03-17T11:06:18;93937.00;;;14.68;43.81
10606;BME280;5350;42.698;23.148;2024-03-17T11:08:45;93922.75;;;14.47;43.79
10606;BME280;5350;42.698;23.148;2024-03-17T11:11:12;93918.13;;;14.61;43.43
10606;BME280;5350;42.698;23.148;2024-03-17T11:13:39;93939.28;;;15.00;43.72
10606;BME280;5350;42.698;23.148;2024-03-17T11:16:25;93927.44;;;15.06;43.62
10606;BME280;5350;42.698;23.148;2024-03-17T11:19:05;93926.44;;;14.85;41.92
10606;BME280;5350;42.698;23.148;2024-03-17T11:21:32;93931.28;;;14.83;42.39
10606;BME280;5350;42.698;23.148;2024-03-17T11:24:02;93924.56;;;14.77;43.22
10606;BME280;5350;42.698;23.148;2024-03-17T11:26:31;93918.72;;;14.58;42.42
10606;BME280;5350;42.698;23.148;2024-03-17T11:28:59;93933.47;;;14.42;43.99
10606;BME280;5350;42.698;23.148;2024-03-17T11:31:35;93926.50;;;14.55;43.31
10606;BME280;5350;42.698;23.148;2024-03-17T11:34:04;93923.69;;;14.51;45.68
10606;BME280;5350;42.698;23.148;2024-03-17T11:36:33;93925.88;;;14.49;45.52
10606;BME280;5350;42.698;23.148;2024-03-17T11:39:03;93910.78;;;14.58;45.20
10606;BME280;5350;42.698;23.148;2024-03-17T11:41:32;93919.97;;;14.61;45.48
10606;BME280;5350;42.698;23.148;2024-03-17T11:44:13;93916.06;;;14.58;46.43
10606;BME280;5350;42.698;23.148;2024-03-17T11:46:41;93913.44;;;14.58;47.19
10606;BME280;5350;42.698;23.148;2024-03-17T11:49:17;93911.00;;;14.70;46.90
10606;BME280;5350;42.698;23.148;2024-03-17T11:51:44;93905.22;;;14.68;47.37
10606;BME280;5350;42.698;23.148;2024-03-17T11:54:14;93906.59;;;14.57;47.72
10606;BME280;5350;42.698;23.148;2024-03-17T11:56:44;93905.38;;;14.63;48.84
10606;BME280;5350;42.698;23.148;2024-03-17T11:59:11;93896.97;;;14.70;48.95
10606;BME280;5350;42.698;23.148;2024-03-17T12:01:37;93900.13;;;14.80;48.94
10606;BME280;5350;42.698;23.148;2024-03-17T12:04:05;93901.38;;;14.83;48.95
10606;BME280;5350;42.698;23.148;2024-03-17T12:06:31;93906.97;;;14.81;48.87
10606;BME280;5350;42.698;23.148;2024-03-17T12:09:08;93897.91;;;14.74;49.26
10606;BME280;5350;42.698;23.148;2024-03-17T12:11:35;93913.63;;;14.62;50.16
10606;BME280;5350;42.698;23.148;2024-03-17T12:14:13;93915.25;;;14.40;52.09
10606;BME280;5350;42.698;23.148;2024-03-17T12:16:46;93901.22;;;14.40;51.62
10606;BME280;5350;42.698;23.148;2024-03-17T12:19:15;93911.78;;;14.31;52.96
10606;BME280;5350;42.698;23.148;2024-03-17T12:21:43;93902.81;;;14.19;54.58
10606;BME280;5350;42.698;23.148;2024-03-17T12:24:14;93899.84;;;14.12;55.71
10606;BME280;5350;42.698;23.148;2024-03-17T12:26:40;93900.78;;;14.16;55.82
10606;BME280;5350;42.698;23.148;2024-03-17T12:29:22;93899.94;;;14.07;57.26
10606;BME280;5350;42.698;23.148;2024-03-17T12:31:49;93901.63;;;14.03;57.50
10606;BME280;5350;42.698;23.148;2024-03-17T12:34:18;93911.03;;;13.87;58.58
10606;BME280;5350;42.698;23.148;2024-03-17T12:36:44;93905.25;;;13.62;59.39
10606;BME280;5350;42.698;23.148;2024-03-17T12:39:17;93903.00;;;13.47;60.63
10606;BME280;5350;42.698;23.148;2024-03-17T12:41:44;93898.69;;;13.38;62.14
10606;BME280;5350;42.698;23.148;2024-03-17T12:44:21;93888.63;;;13.40;62.60
10606;BME280;5350;42.698;23.148;2024-03-17T12:46:47;93886.22;;;13.52;64.23
10606;BME280;5350;42.698;23.148;2024-03-17T12:49:14;93896.25;;;13.63;62.34
10606;BME280;5350;42.698;23.148;2024-03-17T12:51:41;93893.47;;;13.69;63.30
10606;BME280;5350;42.698;23.148;2024-03-17T12:54:13;93887.50;;;13.77;63.77
10606;BME280;5350;42.698;23.148;2024-03-17T12:56:39;93888.81;;;13.66;63.34
10606;BME280;5350;42.698;23.148;2024-03-17T12:59:23;93894.81;;;13.80;64.36
10606;BME280;5350;42.698;23.148;2024-03-17T13:02:10;93880.38;;;13.86;63.67
10606;BME280;5350;42.698;23.148;2024-03-17T13:04:38;93877.81;;;13.72;64.13